createdAt,value
2022-09-18T00:00:59.728Z,0.80
2022-09-18T00:03:47.724Z,1.00
2022-09-18T00:06:39.582Z,1.27
2022-09-18T00:09:26.884Z,1.37
2022-09-18T00:12:14.166Z,0.93
2022-09-18T00:15:01.943Z,1.03
2022-09-18T00:17:48.715Z,1.00
2022-09-18T00:20:36.910Z,0.90
2022-09-18T00:23:23.766Z,1.07
2022-09-18T00:26:12.060Z,0.80
2022-09-18T00:28:59.416Z,1.03
2022-09-18T00:31:47.133Z,0.90
2022-09-18T00:34:35.060Z,0.87
2022-09-18T00:37:22.398Z,0.97
2022-09-18T00:40:11.333Z,0.90
2022-09-18T00:42:59.142Z,0.90
2022-09-18T00:46:08.972Z,0.80
2022-09-18T00:49:08.358Z,0.70
2022-09-18T00:51:58.495Z,0.93
2022-09-18T00:54:51.197Z,1.10
2022-09-18T00:57:43.728Z,0.80
2022-09-18T01:00:32.206Z,1.00
2022-09-18T01:03:19.519Z,1.03
2022-09-18T01:06:37.011Z,1.23
2022-09-18T01:09:42.551Z,1.03
2022-09-18T01:12:44.145Z,0.93
2022-09-18T01:15:30.891Z,0.70
2022-09-18T01:18:45.818Z,0.87
2022-09-18T01:21:50.744Z,0.70
2022-09-18T01:25:17.341Z,0.90
2022-09-18T01:28:16.229Z,0.87
2022-09-18T01:31:18.053Z,1.00
2022-09-18T01:34:21.117Z,0.70
2022-09-18T01:37:40.351Z,0.77
2022-09-18T01:40:42.025Z,1.10
2022-09-18T01:43:31.334Z,1.03
2022-09-18T01:46:20.715Z,0.97
2022-09-18T01:49:36.454Z,1.07
2022-09-18T01:52:29.637Z,0.83
2022-09-18T01:55:22.649Z,1.00
2022-09-18T01:58:13.846Z,1.10
2022-09-18T02:01:07.102Z,1.40
2022-09-18T02:04:08.477Z,0.90
2022-09-18T02:07:14.779Z,1.07
2022-09-18T02:10:03.201Z,0.90
2022-09-18T02:12:54.617Z,1.03
2022-09-18T02:15:44.884Z,1.10
2022-09-18T02:18:41.023Z,1.03
2022-09-18T02:21:32.023Z,0.90
2022-09-18T02:24:23.355Z,1.17
2022-09-18T02:27:13.340Z,0.80
2022-09-18T02:30:03.808Z,0.93
2022-09-18T02:32:56.055Z,1.00
2022-09-18T02:35:47.763Z,1.00
2022-09-18T02:38:47.410Z,0.90
2022-09-18T02:42:13.213Z,0.90
2022-09-18T02:45:15.290Z,1.00
2022-09-18T02:48:19.676Z,0.90
2022-09-18T02:51:28.883Z,1.03
2022-09-18T02:54:41.808Z,1.30
2022-09-18T02:57:41.852Z,1.00
2022-09-18T03:00:31.534Z,0.90
2022-09-18T03:03:19.017Z,0.90
2022-09-18T03:06:08.302Z,1.27
2022-09-18T03:08:55.590Z,1.00
2022-09-18T03:11:42.718Z,1.30
2022-09-18T03:14:29.957Z,1.00
2022-09-18T03:17:17.362Z,1.33
2022-09-18T03:20:06.793Z,1.27
2022-09-18T03:22:54.191Z,0.97
2022-09-18T03:25:41.401Z,1.60
2022-09-18T03:28:31.788Z,1.20
2022-09-18T03:31:19.178Z,1.20
2022-09-18T03:34:06.635Z,1.03
2022-09-18T03:36:53.490Z,1.47
2022-09-18T03:39:40.324Z,0.90
2022-09-18T03:42:27.481Z,1.37
2022-09-18T03:45:14.884Z,1.20
2022-09-18T03:48:02.108Z,1.10
2022-09-18T03:50:49.936Z,0.83
2022-09-18T03:53:36.778Z,1.03
2022-09-18T03:56:23.671Z,1.33
2022-09-18T03:59:10.919Z,0.90
2022-09-18T04:01:58.059Z,1.20
2022-09-18T04:04:45.273Z,1.13
2022-09-18T04:07:32.681Z,1.13
2022-09-18T04:10:21.030Z,1.20
2022-09-18T04:13:08.044Z,1.03
2022-09-18T04:15:55.336Z,1.13
2022-09-18T04:18:42.785Z,1.10
2022-09-18T04:21:29.605Z,1.10
2022-09-18T04:24:16.940Z,1.20
2022-09-18T04:27:03.868Z,1.30
2022-09-18T04:29:51.250Z,0.90
2022-09-18T04:32:38.217Z,1.10
2022-09-18T04:35:26.251Z,1.30
2022-09-18T04:38:13.322Z,1.10
2022-09-18T04:41:02.856Z,1.03
2022-09-18T04:43:49.796Z,1.00
2022-09-18T04:46:37.148Z,0.90
2022-09-18T04:49:24.366Z,1.30
2022-09-18T04:52:11.759Z,1.17
2022-09-18T04:54:58.870Z,1.10
2022-09-18T04:57:46.426Z,1.07
2022-09-18T05:00:36.435Z,1.27
2022-09-18T05:03:24.037Z,1.20
2022-09-18T05:06:11.557Z,1.40
2022-09-18T05:08:59.113Z,1.00
2022-09-18T05:11:46.560Z,1.10
2022-09-18T05:14:34.481Z,1.13
2022-09-18T05:17:21.714Z,1.03
2022-09-18T05:20:09.022Z,1.20
2022-09-18T05:22:57.069Z,1.33
2022-09-18T05:25:43.885Z,1.17
2022-09-18T05:28:31.460Z,1.03
2022-09-18T05:31:19.008Z,1.30
2022-09-18T05:34:05.960Z,1.40
2022-09-18T05:36:53.403Z,1.20
2022-09-18T05:39:40.480Z,1.20
2022-09-18T05:42:28.122Z,1.03
2022-09-18T05:45:16.825Z,1.30
2022-09-18T05:48:06.617Z,1.17
2022-09-18T05:50:53.588Z,1.27
2022-09-18T05:53:42.682Z,0.93
2022-09-18T05:56:30.119Z,1.10
2022-09-18T05:59:17.444Z,1.30
2022-09-18T06:02:04.729Z,1.20
2022-09-18T06:04:52.307Z,1.47
2022-09-18T06:07:40.361Z,1.50
2022-09-18T06:10:28.380Z,1.10
2022-09-18T06:13:18.510Z,1.20
2022-09-18T06:16:05.724Z,1.47
2022-09-18T06:18:53.551Z,1.10
2022-09-18T06:21:43.506Z,1.00
2022-09-18T06:24:30.961Z,1.13
2022-09-18T06:27:18.611Z,1.40
2022-09-18T06:30:07.292Z,1.10
2022-09-18T06:32:56.818Z,1.63
2022-09-18T06:35:44.704Z,1.80
2022-09-18T06:38:34.467Z,2.27
2022-09-18T06:41:31.247Z,2.00
2022-09-18T06:44:21.979Z,2.00
2022-09-18T06:47:13.266Z,1.40
2022-09-18T06:50:01.211Z,1.40
2022-09-18T06:52:49.310Z,1.30
2022-09-18T06:55:36.743Z,1.03
2022-09-18T06:58:24.755Z,1.40
2022-09-18T07:01:12.712Z,1.47
2022-09-18T07:04:00.166Z,1.30
2022-09-18T07:06:47.745Z,1.30
2022-09-18T07:09:34.754Z,1.27
2022-09-18T07:12:22.576Z,1.20
2022-09-18T07:15:10.657Z,1.17
2022-09-18T07:18:03.276Z,1.50
2022-09-18T07:20:51.249Z,1.40
2022-09-18T07:23:38.972Z,1.43
2022-09-18T07:26:26.761Z,1.40
2022-09-18T07:29:14.470Z,1.40
2022-09-18T07:32:02.429Z,1.20
2022-09-18T07:34:50.385Z,1.10
2022-09-18T07:37:39.401Z,1.10
2022-09-18T07:40:27.348Z,1.40
2022-09-18T07:43:14.721Z,1.20
2022-09-18T07:46:03.385Z,1.10
2022-09-18T07:48:50.744Z,1.20
2022-09-18T07:51:38.485Z,1.40
2022-09-18T07:54:26.373Z,1.17
2022-09-18T07:57:13.662Z,1.30
2022-09-18T08:00:01.089Z,1.30
2022-09-18T08:02:51.295Z,1.30
2022-09-18T08:05:42.485Z,1.40
2022-09-18T08:08:30.117Z,1.10
2022-09-18T08:11:16.981Z,1.30
2022-09-18T08:14:04.441Z,1.30
2022-09-18T08:16:52.047Z,1.30
2022-09-18T08:19:39.379Z,1.30
2022-09-18T08:22:26.318Z,1.30
2022-09-18T08:25:14.694Z,1.00
2022-09-18T08:28:03.850Z,1.23
2022-09-18T08:30:50.836Z,1.27
2022-09-18T08:33:38.212Z,1.30
2022-09-18T08:36:25.831Z,1.37
2022-09-18T08:39:13.307Z,1.47
2022-09-18T08:42:33.449Z,1.60
2022-09-18T08:45:48.399Z,1.30
2022-09-18T08:48:40.147Z,1.53
2022-09-18T08:51:42.146Z,1.20
2022-09-18T08:55:01.002Z,1.13
2022-09-18T08:57:52.529Z,1.13
2022-09-18T09:00:50.578Z,1.10
2022-09-18T09:04:01.482Z,1.43
2022-09-18T09:07:11.556Z,1.23
2022-09-18T09:10:22.214Z,1.10
2022-09-18T09:13:24.388Z,1.40
2022-09-18T09:16:43.103Z,2.27
2022-09-18T09:19:45.178Z,1.27
2022-09-18T09:22:48.277Z,1.60
2022-09-18T09:25:49.190Z,1.40
2022-09-18T09:28:41.660Z,1.27
2022-09-18T09:31:37.430Z,0.97
2022-09-18T09:34:34.996Z,1.10
2022-09-18T09:37:36.641Z,1.10
2022-09-18T09:40:39.343Z,0.90
2022-09-18T09:43:53.866Z,1.00
2022-09-18T09:46:57.996Z,1.10
2022-09-18T09:49:58.323Z,1.00
2022-09-18T09:52:47.631Z,0.90
2022-09-18T09:55:57.681Z,0.90
2022-09-18T09:59:14.986Z,0.90
2022-09-18T10:02:41.572Z,1.00
2022-09-18T10:05:53.737Z,1.10
2022-09-18T10:08:56.429Z,0.90
2022-09-18T10:11:57.053Z,1.20
2022-09-18T10:14:48.071Z,1.10
2022-09-18T10:17:39.881Z,1.13
2022-09-18T10:20:32.137Z,1.37
2022-09-18T10:23:41.993Z,0.80
2022-09-18T10:26:53.039Z,0.90
2022-09-18T10:29:40.425Z,0.90
2022-09-18T10:32:39.829Z,0.90
2022-09-18T10:35:42.199Z,0.70
2022-09-18T10:38:33.206Z,0.90
2022-09-18T10:41:37.244Z,0.73
2022-09-18T10:44:49.702Z,1.10
2022-09-18T10:47:37.958Z,1.00
2022-09-18T10:50:25.416Z,1.37
2022-09-18T10:53:33.751Z,0.70
2022-09-18T10:56:21.549Z,0.90
2022-09-18T10:59:30.588Z,0.80
2022-09-18T11:02:20.753Z,1.00
2022-09-18T11:05:19.130Z,0.97
2022-09-18T11:08:14.481Z,1.33
2022-09-18T11:11:13.787Z,1.17
2022-09-18T11:14:02.542Z,1.20
2022-09-18T11:16:52.598Z,0.80
2022-09-18T11:19:40.241Z,0.80
2022-09-18T11:22:39.597Z,0.80
2022-09-18T11:25:28.726Z,1.13
2022-09-18T11:28:32.613Z,0.80
2022-09-18T11:31:21.851Z,0.70
2022-09-18T11:34:32.623Z,1.00
2022-09-18T11:37:27.583Z,0.77
2022-09-18T11:40:25.322Z,1.03
2022-09-18T11:43:21.481Z,1.00
2022-09-18T11:46:24.012Z,0.80
2022-09-18T11:49:22.627Z,0.90
2022-09-18T11:52:20.945Z,0.80
2022-09-18T11:55:23.445Z,0.87
2022-09-18T11:58:31.398Z,0.90
2022-09-18T12:01:35.130Z,0.90
2022-09-18T12:04:41.630Z,0.97
2022-09-18T12:07:53.987Z,0.80
2022-09-18T12:11:05.139Z,0.80
2022-09-18T12:13:55.137Z,0.80
2022-09-18T12:17:00.807Z,1.00
2022-09-18T12:19:55.667Z,0.90
2022-09-18T12:22:54.711Z,1.37
2022-09-18T12:25:56.363Z,1.10
2022-09-18T12:29:02.022Z,1.20
2022-09-18T12:31:59.343Z,2.17
2022-09-18T12:35:17.732Z,1.37
2022-09-18T12:38:38.288Z,1.20
2022-09-18T12:41:40.917Z,0.93
2022-09-18T12:44:28.493Z,1.27
2022-09-18T12:47:38.053Z,1.10
2022-09-18T12:50:45.482Z,1.10
2022-09-18T12:54:06.613Z,0.70
2022-09-18T12:57:09.979Z,0.80
2022-09-18T13:00:14.040Z,1.00
2022-09-18T13:03:18.227Z,0.97
2022-09-18T13:06:15.271Z,0.77
2022-09-18T13:09:12.537Z,0.70
2022-09-18T13:12:07.715Z,0.93
2022-09-18T13:15:02.535Z,0.83
2022-09-18T13:18:16.130Z,0.90
2022-09-18T13:21:10.617Z,0.93
2022-09-18T13:23:59.112Z,0.90
2022-09-18T13:26:48.508Z,1.40
2022-09-18T13:29:56.601Z,1.00
2022-09-18T13:32:43.555Z,1.13
2022-09-18T13:35:36.638Z,1.00
2022-09-18T13:38:29.067Z,0.80
2022-09-18T13:41:16.894Z,0.80
2022-09-18T13:44:04.410Z,0.90
2022-09-18T13:46:55.100Z,0.95
2022-09-18T13:49:50.830Z,0.90
2022-09-18T13:52:37.819Z,0.90
2022-09-18T13:55:26.618Z,0.82
2022-09-18T13:58:31.833Z,1.08
2022-09-18T14:02:02.777Z,1.00
2022-09-18T14:04:57.761Z,1.10
2022-09-18T14:08:34.006Z,1.30
2022-09-18T14:11:25.079Z,1.00
2022-09-18T14:14:12.587Z,0.90
2022-09-18T14:17:12.653Z,0.90
2022-09-18T14:20:08.318Z,1.10
2022-09-18T14:22:55.309Z,1.10
2022-09-18T14:25:46.015Z,1.10
2022-09-18T14:28:33.790Z,1.27
2022-09-18T14:31:48.246Z,0.90
2022-09-18T14:34:42.035Z,0.80
2022-09-18T14:37:35.866Z,0.80
2022-09-18T14:40:24.991Z,0.73
2022-09-18T14:43:16.928Z,0.93
2022-09-18T14:46:04.476Z,1.00
2022-09-18T14:48:52.381Z,0.90
2022-09-18T14:52:03.281Z,0.90
2022-09-18T14:54:54.806Z,1.10
2022-09-18T14:57:50.571Z,1.20
2022-09-18T15:00:38.595Z,0.70
2022-09-18T15:03:30.300Z,1.07
2022-09-18T15:06:38.035Z,0.80
2022-09-18T15:09:29.930Z,0.90
2022-09-18T15:12:20.965Z,0.73
2022-09-18T15:15:39.829Z,1.10
2022-09-18T15:18:28.300Z,0.80
2022-09-18T15:21:22.502Z,0.80
2022-09-18T15:24:15.604Z,0.90
2022-09-18T15:27:05.075Z,0.93
2022-09-18T15:29:55.499Z,0.90
2022-09-18T15:32:46.294Z,0.90
2022-09-18T15:35:37.638Z,0.80
2022-09-18T15:38:26.370Z,1.10
2022-09-18T15:41:32.144Z,0.80
2022-09-18T15:44:30.555Z,1.03
2022-09-18T15:47:23.934Z,0.90
2022-09-18T15:50:17.015Z,0.80
2022-09-18T15:53:19.090Z,1.20
2022-09-18T15:56:08.101Z,1.33
2022-09-18T15:58:58.666Z,0.80
2022-09-18T16:01:47.482Z,1.10
2022-09-18T16:04:36.152Z,1.00
2022-09-18T16:07:29.875Z,0.87
2022-09-18T16:10:41.614Z,0.73
2022-09-18T16:13:36.885Z,0.87
2022-09-18T16:16:24.832Z,1.00
2022-09-18T16:19:13.254Z,1.10
2022-09-18T16:22:08.223Z,1.20
2022-09-18T16:25:00.178Z,1.10
2022-09-18T16:27:48.811Z,1.50
2022-09-18T16:30:37.283Z,1.00
2022-09-18T16:33:29.324Z,1.00
2022-09-18T16:36:26.069Z,1.40
2022-09-18T16:39:14.932Z,1.17
2022-09-18T16:42:13.936Z,1.50
2022-09-18T16:45:02.149Z,1.30
2022-09-18T16:47:52.019Z,1.00
2022-09-18T16:50:39.967Z,1.60
2022-09-18T16:53:27.456Z,1.70
2022-09-18T16:56:17.056Z,1.60
2022-09-18T16:59:05.335Z,1.50
2022-09-18T17:02:03.892Z,1.47
2022-09-18T17:04:52.387Z,1.77
2022-09-18T17:07:42.926Z,1.60
2022-09-18T17:10:34.398Z,1.63
2022-09-18T17:13:22.551Z,1.57
2022-09-18T17:16:10.327Z,1.30
2022-09-18T17:18:57.936Z,1.53
2022-09-18T17:21:45.551Z,1.07
2022-09-18T17:24:33.083Z,1.30
2022-09-18T17:27:20.692Z,1.20
2022-09-18T17:30:08.910Z,1.33
2022-09-18T17:32:56.674Z,1.60
2022-09-18T17:35:44.612Z,1.50
2022-09-18T17:38:33.847Z,1.33
2022-09-18T17:41:21.406Z,1.37
2022-09-18T17:44:09.337Z,1.40
2022-09-18T17:46:56.789Z,1.47
2022-09-18T17:49:44.205Z,1.27
2022-09-18T17:52:33.657Z,1.43
2022-09-18T17:55:20.934Z,1.63
2022-09-18T17:58:08.203Z,1.50
2022-09-18T18:00:56.244Z,1.67
2022-09-18T18:03:43.906Z,1.50
2022-09-18T18:06:32.071Z,2.73
2022-09-18T18:09:19.469Z,2.07
2022-09-18T18:12:06.778Z,2.37
2022-09-18T18:14:54.487Z,2.10
2022-09-18T18:17:41.922Z,2.43
2022-09-18T18:20:29.631Z,1.73
2022-09-18T18:23:17.360Z,1.83
2022-09-18T18:26:05.569Z,1.80
2022-09-18T18:28:53.828Z,1.83
2022-09-18T18:31:42.997Z,1.73
2022-09-18T18:34:31.465Z,1.60
2022-09-18T18:37:19.683Z,1.63
2022-09-18T18:40:07.201Z,1.93
2022-09-18T18:42:54.463Z,1.97
2022-09-18T18:45:52.541Z,1.83
2022-09-18T18:48:43.644Z,1.67
2022-09-18T18:51:32.839Z,1.47
2022-09-18T18:54:22.042Z,1.63
2022-09-18T18:57:09.667Z,1.37
2022-09-18T18:59:57.339Z,1.50
2022-09-18T19:02:45.999Z,1.23
2022-09-18T19:05:33.428Z,1.27
2022-09-18T19:08:21.013Z,1.20
2022-09-18T19:11:08.961Z,0.93
2022-09-18T19:13:57.114Z,1.20
2022-09-18T19:16:45.400Z,1.50
2022-09-18T19:19:32.821Z,1.20
2022-09-18T19:22:20.238Z,0.97
2022-09-18T19:25:07.638Z,1.00
2022-09-18T19:27:56.079Z,1.03
2022-09-18T19:30:43.682Z,1.13
2022-09-18T19:36:32.606Z,1.23
2022-09-18T19:39:21.228Z,1.17
2022-09-18T19:42:15.126Z,1.00
2022-09-18T19:45:04.126Z,1.43
2022-09-18T19:47:51.426Z,1.33
2022-09-18T19:50:40.168Z,1.10
2022-09-18T19:53:27.880Z,1.40
2022-09-18T19:56:39.291Z,1.57
2022-09-18T19:59:23.351Z,1.27
2022-09-18T20:02:13.122Z,1.40
2022-09-18T20:05:02.311Z,1.03
2022-09-18T20:07:50.302Z,1.13
2022-09-18T20:10:38.851Z,1.23
2022-09-18T20:13:26.845Z,1.10
2022-09-18T20:16:14.733Z,0.90
2022-09-18T20:19:02.292Z,0.90
2022-09-18T20:21:50.778Z,0.87
2022-09-18T20:24:39.246Z,1.27
2022-09-18T20:27:27.190Z,1.03
2022-09-18T20:30:14.736Z,1.23
2022-09-18T20:33:02.399Z,1.17
2022-09-18T20:35:55.255Z,1.00
2022-09-18T20:38:43.015Z,1.10
2022-09-18T20:41:31.006Z,1.00
2022-09-18T20:44:18.990Z,1.07
2022-09-18T20:47:06.971Z,1.03
2022-09-18T20:49:54.349Z,0.87
2022-09-18T20:52:43.402Z,1.00
2022-09-18T20:55:30.706Z,0.97
2022-09-18T20:58:18.618Z,0.83
2022-09-18T21:01:13.570Z,0.80
2022-09-18T21:04:02.259Z,1.20
2022-09-18T21:06:55.850Z,1.20
2022-09-18T21:09:43.655Z,1.00
2022-09-18T21:12:32.559Z,0.83
2022-09-18T21:15:20.413Z,1.10
2022-09-18T21:18:09.164Z,1.00
2022-09-18T21:21:03.741Z,0.80
2022-09-18T21:23:53.721Z,0.93
2022-09-18T21:26:48.196Z,0.80
2022-09-18T21:29:35.865Z,1.17
2022-09-18T21:32:22.991Z,1.20
2022-09-18T21:35:10.162Z,1.20
2022-09-18T21:37:57.866Z,1.17
2022-09-18T21:40:45.882Z,0.97
2022-09-18T21:43:33.505Z,0.70
2022-09-18T21:46:23.444Z,0.83
2022-09-18T21:49:10.828Z,0.90
2022-09-18T21:52:02.196Z,1.00
2022-09-18T21:54:49.560Z,0.97
2022-09-18T21:57:36.910Z,0.90
2022-09-18T22:00:23.713Z,0.80
2022-09-18T22:03:10.499Z,0.90
2022-09-18T22:06:02.354Z,0.93
2022-09-18T22:08:52.464Z,1.10
2022-09-18T22:11:41.250Z,1.00
2022-09-18T22:14:32.522Z,0.97
2022-09-18T22:17:19.426Z,1.00
2022-09-18T22:20:07.231Z,0.90
2022-09-18T22:22:55.357Z,0.90
2022-09-18T22:25:43.222Z,1.10
2022-09-18T22:28:31.509Z,1.30
2022-09-18T22:31:19.454Z,1.00
2022-09-18T22:34:07.011Z,1.03
2022-09-18T22:36:54.938Z,1.10
2022-09-18T22:39:42.344Z,1.10
2022-09-18T22:42:30.672Z,1.20
2022-09-18T22:45:18.168Z,1.10
2022-09-18T22:48:05.962Z,1.20
2022-09-18T22:50:53.776Z,1.30
2022-09-18T22:53:45.772Z,1.10
2022-09-18T22:56:33.699Z,1.00
2022-09-18T22:59:22.796Z,1.60
2022-09-18T23:02:10.286Z,1.30
2022-09-18T23:04:59.366Z,1.30
2022-09-18T23:07:47.600Z,1.40
2022-09-18T23:10:35.240Z,1.10
2022-09-18T23:13:22.903Z,1.20
2022-09-18T23:16:11.371Z,1.30
2022-09-18T23:19:00.336Z,1.17
2022-09-18T23:21:48.051Z,1.00
2022-09-18T23:24:35.223Z,0.90
2022-09-18T23:27:23.020Z,1.13
2022-09-18T23:30:10.763Z,1.00
2022-09-18T23:32:58.584Z,1.10
2022-09-18T23:35:45.802Z,1.00
2022-09-18T23:38:33.489Z,1.13
2022-09-18T23:41:21.559Z,1.10
2022-09-18T23:44:10.393Z,1.20
2022-09-18T23:46:58.606Z,1.40
2022-09-18T23:49:46.430Z,1.10
2022-09-18T23:52:33.821Z,1.23
2022-09-18T23:55:21.597Z,1.00
2022-09-18T23:58:09.483Z,1.00
